Dallas/Fort Worth (DFW/KDFW)

Information

Location
Dallas/Fort Worth, TX
Local Time
14:47 / 2:47 pm
GMT Time
19:47 / 7:47 pm
No FAA reported delays
METAR KDFW 281853Z 18014G18KT 10SM SCT035 BKN250 29/20 A2960 RMK AO2 SLP014 T02940200
TAF KDFW 281734Z 2818/2924 18014KT P6SM SCT040 BKN250 FM290700 18018KT P6SM BKN015 FM291600 17015KT P6SM VCSH BKN022 FM291800 19013KT P6SM VCTS OVC035CB TEMPO 2918/2921 32015G25KT 3SM TSRA OVC020CB FM292100 32016KT 6SM -RA VCTS BKN025CB